Time;durP1;ratioP1;P1;durP2;ratioP2;P2;SDS_P1;SDS_P2;PMS_P1;PMS_P2;Temp;Humidity;BMP_temperature;BMP_pressure;BME280_temperature;BME280_humidity;BME280_pressure;Samples;Min_cycle;Max_cycle;Signal;HPM_P1;HPM_P2
2022/03/08 00:01:04;;;;;;;10.55;4.15;;;1.60;99.90;;;;;;5054628;28;20079;-74
2022/03/08 00:03:29;;;;;;;11.48;3.42;;;1.60;99.90;;;;;;5053787;28;20474;-74
2022/03/08 00:05:55;;;;;;;11.07;3.88;;;1.60;99.90;;;;;;5054451;28;20108;-74
2022/03/08 00:08:21;;;;;;;11.52;4.30;;;1.50;99.90;;;;;;5054352;28;20021;-74
2022/03/08 00:10:47;;;;;;;12.18;3.97;;;1.50;99.90;;;;;;5054906;28;20021;-74
2022/03/08 00:13:12;;;;;;;13.88;4.15;;;1.50;99.90;;;;;;5054593;28;20486;-74
2022/03/08 00:15:38;;;;;;;10.50;3.30;;;1.50;99.90;;;;;;5054912;28;20522;-73
2022/03/08 00:18:03;;;;;;;11.45;4.28;;;1.40;99.90;;;;;;5054658;28;20086;-73
2022/03/08 00:20:30;;;;;;;10.90;3.88;;;1.40;99.90;;;;;;5054663;28;20021;-73
2022/03/08 00:22:57;;;;;;;9.88;3.25;;;1.40;99.90;;;;;;5043295;28;20507;-74
2022/03/08 00:25:23;;;;;;;10.65;3.45;;;1.30;99.90;;;;;;5034051;28;20026;-74
2022/03/08 00:27:49;;;;;;;10.38;3.65;;;1.30;99.90;;;;;;5033833;28;20117;-74
2022/03/08 00:30:17;;;;;;;8.07;3.53;;;1.40;99.90;;;;;;5033008;28;20020;-74
2022/03/08 00:32:43;;;;;;;13.40;3.70;;;1.40;99.90;;;;;;5032758;28;20475;-74
2022/03/08 00:35:09;;;;;;;12.65;4.53;;;1.40;99.90;;;;;;5032955;28;20025;-74
2022/03/08 00:37:35;;;;;;;7.93;3.10;;;1.40;99.90;;;;;;5033742;28;20038;-73
2022/03/08 00:40:02;;;;;;;8.65;3.95;;;2.20;99.90;;;;;;5032868;28;20029;-73
2022/03/08 00:42:28;;;;;;;10.13;3.60;;;1.30;99.90;;;;;;5033744;28;20069;-74
2022/03/08 00:44:53;;;;;;;12.90;3.92;;;1.40;99.90;;;;;;5032473;28;20044;-74
2022/03/08 00:47:19;;;;;;;13.70;3.72;;;1.30;99.90;;;;;;5033636;28;20394;-74
2022/03/08 00:49:44;;;;;;;10.63;4.20;;;1.30;99.90;;;;;;5032490;28;20083;-74
2022/03/08 00:52:10;;;;;;;15.15;3.97;;;1.30;99.90;;;;;;5033954;28;20463;-74
2022/03/08 00:54:36;;;;;;;11.43;4.22;;;1.20;99.90;;;;;;5033880;28;20021;-74
2022/03/08 00:57:02;;;;;;;9.82;3.92;;;1.20;99.90;;;;;;5033906;28;20092;-74
2022/03/08 00:59:28;;;;;;;9.75;3.47;;;1.20;99.90;;;;;;5032407;28;20028;-74
2022/03/08 01:01:56;;;;;;;12.82;3.80;;;1.20;99.90;;;;;;5032627;28;20017;-74
2022/03/08 01:04:22;;;;;;;11.10;3.83;;;1.20;99.90;;;;;;5033623;28;20491;-74
2022/03/08 01:06:47;;;;;;;8.98;3.75;;;1.10;99.90;;;;;;5033878;28;20037;-73
2022/03/08 01:09:13;;;;;;;7.55;3.33;;;1.10;99.90;;;;;;5033529;28;20045;-74
2022/03/08 01:11:39;;;;;;;10.80;3.30;;;1.10;99.90;;;;;;5032360;28;20075;-74
2022/03/08 01:14:06;;;;;;;9.90;3.90;;;1.10;99.90;;;;;;5033347;28;20431;-73
2022/03/08 01:16:32;;;;;;;10.65;3.72;;;1.10;99.90;;;;;;5033291;28;20017;-73
2022/03/08 01:18:58;;;;;;;11.77;4.85;;;1.10;99.90;;;;;;5032274;28;20033;-74
2022/03/08 01:21:23;;;;;;;6.28;3.03;;;1.00;99.90;;;;;;5065432;28;20035;-74
2022/03/08 01:23:49;;;;;;;8.70;3.47;;;1.00;99.90;;;;;;5032027;28;20021;-74
2022/03/08 01:26:15;;;;;;;11.48;3.50;;;1.00;99.90;;;;;;5033301;28;20026;-73
2022/03/08 01:28:41;;;;;;;10.30;4.18;;;1.00;99.90;;;;;;5033404;28;20029;-73
2022/03/08 01:31:07;;;;;;;8.48;3.45;;;1.00;99.90;;;;;;5033457;28;20018;-74
2022/03/08 01:33:32;;;;;;;9.27;3.50;;;0.90;99.90;;;;;;5032187;28;20032;-74
2022/03/08 01:35:58;;;;;;;8.10;3.65;;;0.90;99.90;;;;;;5033264;28;20025;-74
2022/03/08 01:38:24;;;;;;;10.80;3.35;;;0.90;99.90;;;;;;5033050;28;20502;-74
2022/03/08 01:40:50;;;;;;;8.82;3.20;;;0.80;99.90;;;;;;5032801;28;20021;-74
2022/03/08 01:43:15;;;;;;;7.80;3.15;;;0.80;99.90;;;;;;5032805;28;20025;-74
2022/03/08 01:45:42;;;;;;;11.38;3.55;;;0.80;99.90;;;;;;5031522;28;20116;-74
2022/03/08 01:48:08;;;;;;;9.85;3.28;;;0.70;99.90;;;;;;5033215;28;20079;-74
2022/03/08 01:50:34;;;;;;;5.95;3.00;;;0.60;99.90;;;;;;5033930;28;20021;-73
2022/03/08 01:53:00;;;;;;;6.22;2.75;;;0.60;99.90;;;;;;5036304;28;20017;-73
2022/03/08 01:55:26;;;;;;;9.45;3.47;;;0.50;99.90;;;;;;5036239;28;20022;-73
2022/03/08 01:57:52;;;;;;;7.63;3.13;;;0.50;99.90;;;;;;5036258;28;20083;-74
2022/03/08 02:00:28;;;;;;;9.48;3.15;;;0.50;99.90;;;;;;5037112;28;20029;-74
2022/03/08 02:02:54;;;;;;;10.45;4.03;;;0.50;99.90;;;;;;5035007;28;20116;-74
2022/03/08 02:05:20;;;;;;;5.97;2.72;;;0.50;99.90;;;;;;5036342;28;20505;-73
2022/03/08 02:07:47;;;;;;;7.05;3.15;;;0.50;99.90;;;;;;5035068;28;20022;-73
2022/03/08 02:10:12;;;;;;;7.88;3.30;;;0.50;99.90;;;;;;5034789;28;20074;-73
2022/03/08 02:12:41;;;;;;;7.55;2.63;;;0.50;99.90;;;;;;5036202;28;20108;-73
2022/03/08 02:15:23;;;;;;;9.10;2.42;;;0.50;99.90;;;;;;5036165;28;20375;-73
2022/03/08 02:17:49;;;;;;;7.85;3.28;;;0.50;99.90;;;;;;5035786;28;20398;-73
2022/03/08 02:20:16;;;;;;;6.93;2.72;;;0.50;99.90;;;;;;5034673;28;20028;-73
2022/03/08 02:22:43;;;;;;;6.20;2.05;;;0.50;99.90;;;;;;5035803;28;20071;-73
2022/03/08 02:25:10;;;;;;;7.07;2.85;;;0.50;99.90;;;;;;5036051;28;20382;-73
2022/03/08 02:27:41;;;;;;;6.22;2.90;;;0.60;99.90;;;;;;5034305;28;20032;-73
2022/03/08 02:30:08;;;;;;;6.47;2.53;;;0.60;99.90;;;;;;5035941;28;20021;-73
2022/03/08 02:32:34;;;;;;;5.63;2.40;;;0.70;99.90;;;;;;5035715;28;20507;-73
2022/03/08 02:35:08;;;;;;;4.63;1.98;;;0.70;99.90;;;;;;5067594;28;20033;-73
2022/03/08 02:37:47;;;;;;;7.35;2.25;;;0.70;99.90;;;;;;5035354;28;20041;-73
2022/03/08 02:40:18;;;;;;;5.18;1.98;;;0.70;99.90;;;;;;5034252;28;20028;-73
2022/03/08 02:42:44;;;;;;;3.72;1.45;;;0.70;99.90;;;;;;5035653;28;20506;-73
2022/03/08 02:45:11;;;;;;;3.85;1.60;;;0.80;99.90;;;;;;5035473;28;20022;-74
2022/03/08 02:47:37;;;;;;;7.63;2.15;;;0.80;99.90;;;;;;5035190;28;20474;-73
2022/03/08 02:50:06;;;;;;;4.32;1.45;;;0.90;99.90;;;;;;5035331;28;20021;-73
2022/03/08 02:52:32;;;;;;;6.32;1.80;;;0.90;99.90;;;;;;5035175;28;20092;-74
2022/03/08 02:54:58;;;;;;;5.82;1.90;;;1.00;99.90;;;;;;5033968;28;20131;-74
2022/03/08 02:57:23;;;;;;;5.78;1.20;;;1.00;99.90;;;;;;5033792;28;20112;-74
2022/03/08 02:59:49;;;;;;;2.83;1.02;;;1.00;99.90;;;;;;5035125;28;20424;-74
2022/03/08 03:02:14;;;;;;;3.72;1.50;;;1.10;99.90;;;;;;5034290;28;20025;-74
2022/03/08 03:04:40;;;;;;;4.55;1.25;;;1.00;99.90;;;;;;5035072;28;20017;-74
2022/03/08 03:07:06;;;;;;;4.72;2.10;;;1.00;99.90;;;;;;5033559;28;20013;-74
2022/03/08 03:09:31;;;;;;;4.25;1.45;;;1.00;99.90;;;;;;5035007;28;20034;-73
2022/03/08 03:11:57;;;;;;;5.72;1.60;;;1.00;99.90;;;;;;5033791;28;20020;-72
2022/03/08 03:14:23;;;;;;;4.18;1.42;;;1.00;99.90;;;;;;5033827;28;20494;-72
2022/03/08 03:16:48;;;;;;;5.13;1.45;;;1.00;99.90;;;;;;5033685;28;20108;-71
2022/03/08 03:19:14;;;;;;;3.78;1.20;;;0.90;99.90;;;;;;5035392;28;20487;-72
2022/03/08 03:21:39;;;;;;;6.15;1.35;;;0.90;99.90;;;;;;5048431;28;20540;-72
2022/03/08 03:24:05;;;;;;;5.72;1.92;;;1.00;99.90;;;;;;5055788;28;20021;-72
2022/03/08 03:26:31;;;;;;;5.07;2.13;;;1.00;99.90;;;;;;5055239;28;20013;-71
2022/03/08 03:28:56;;;;;;;10.00;1.80;;;1.00;99.90;;;;;;5054665;28;20049;-72
2022/03/08 03:31:22;;;;;;;4.78;1.58;;;1.00;99.90;;;;;;5045236;28;20032;-72
2022/03/08 03:33:47;;;;;;;3.00;1.00;;;1.00;99.90;;;;;;5038316;28;20025;-72
2022/03/08 03:36:13;;;;;;;5.60;1.65;;;1.00;99.90;;;;;;5034956;28;20040;-72
2022/03/08 03:38:38;;;;;;;6.22;1.63;;;0.90;99.90;;;;;;5034751;28;20029;-72
2022/03/08 03:41:04;;;;;;;6.47;1.40;;;0.80;99.90;;;;;;5043267;28;20100;-72
2022/03/08 03:43:30;;;;;;;3.80;1.65;;;0.80;99.90;;;;;;5070520;28;20478;-72
2022/03/08 03:45:55;;;;;;;5.35;1.92;;;0.70;99.90;;;;;;5054469;28;20021;-72
2022/03/08 03:48:21;;;;;;;4.32;1.40;;;0.70;99.90;;;;;;5055327;28;20104;-72
2022/03/08 03:50:46;;;;;;;4.35;2.08;;;0.60;99.90;;;;;;5054538;28;20017;-73
2022/03/08 03:53:12;;;;;;;5.05;2.03;;;0.60;99.90;;;;;;5054925;28;20071;-74
2022/03/08 03:55:38;;;;;;;6.65;2.10;;;0.50;99.90;;;;;;5052537;28;20028;-74
2022/03/08 03:58:03;;;;;;;7.88;2.25;;;0.50;99.90;;;;;;5034515;28;20053;-74
2022/03/08 04:00:29;;;;;;;6.35;1.75;;;0.40;99.90;;;;;;5034674;28;20071;-74
2022/03/08 04:02:54;;;;;;;6.38;2.00;;;0.40;99.90;;;;;;5034363;28;20501;-74
2022/03/08 04:05:20;;;;;;;7.25;2.17;;;0.30;99.90;;;;;;5051017;28;20074;-74
2022/03/08 04:07:46;;;;;;;3.85;1.75;;;0.30;99.90;;;;;;5054076;28;20043;-74
2022/03/08 04:10:13;;;;;;;5.30;1.63;;;0.30;99.90;;;;;;5054386;28;20090;-74
2022/03/08 04:12:42;;;;;;;3.88;1.98;;;0.20;99.90;;;;;;5054204;28;20081;-73
2022/03/08 04:15:08;;;;;;;6.30;2.70;;;0.20;99.90;;;;;;5038189;28;20048;-73
2022/03/08 04:17:34;;;;;;;6.13;2.60;;;0.10;99.90;;;;;;5033004;28;20033;-73
2022/03/08 04:20:00;;;;;;;5.40;1.77;;;0.10;99.90;;;;;;5034095;28;20033;-73
2022/03/08 04:22:26;;;;;;;8.02;2.50;;;0.10;99.90;;;;;;5034056;28;20023;-73
2022/03/08 04:24:51;;;;;;;5.55;1.50;;;0.10;99.90;;;;;;5047037;28;20036;-73
2022/03/08 04:27:17;;;;;;;9.15;2.72;;;0.10;99.90;;;;;;5052132;28;20027;-73
2022/03/08 04:29:42;;;;;;;5.07;2.00;;;0.10;99.90;;;;;;5053006;28;20021;-73
2022/03/08 04:32:08;;;;;;;6.32;2.38;;;0.00;99.90;;;;;;5049183;28;20107;-73
2022/03/08 04:34:34;;;;;;;5.07;1.58;;;0.00;99.90;;;;;;5034200;28;20483;-73
2022/03/08 04:36:59;;;;;;;5.88;2.42;;;0.00;99.90;;;;;;5033827;28;20096;-73
2022/03/08 04:39:25;;;;;;;7.97;2.33;;;-0.10;99.90;;;;;;5033371;28;20099;-73
2022/03/08 04:41:50;;;;;;;7.45;2.03;;;-0.10;99.90;;;;;;5034217;28;20380;-73
2022/03/08 04:44:16;;;;;;;7.90;2.08;;;-0.10;99.90;;;;;;5052454;28;20111;-73
2022/03/08 04:46:41;;;;;;;6.88;2.10;;;-0.10;99.90;;;;;;5051863;28;20025;-73
2022/03/08 04:49:07;;;;;;;3.20;1.80;;;-0.20;99.90;;;;;;5051951;28;20036;-73
2022/03/08 04:51:32;;;;;;;4.78;1.83;;;-0.20;99.90;;;;;;5047999;28;20063;-73
2022/03/08 04:53:58;;;;;;;3.35;1.30;;;-0.20;99.90;;;;;;5053403;28;20536;-73
2022/03/08 04:56:24;;;;;;;3.30;2.05;;;-0.20;99.90;;;;;;5053271;28;20025;-73
2022/03/08 04:58:50;;;;;;;4.43;1.90;;;-0.20;99.90;;;;;;5051921;28;20021;-73
2022/03/08 05:01:21;;;;;;;5.30;2.00;;;-0.20;99.90;;;;;;5043186;28;20044;-73
2022/03/08 05:03:49;;;;;;;7.20;1.75;;;-0.20;99.90;;;;;;5035928;28;20056;-73
2022/03/08 05:06:14;;;;;;;6.20;2.38;;;-0.20;99.90;;;;;;5051782;28;20028;-73
2022/03/08 05:08:40;;;;;;;4.88;2.13;;;-0.20;99.90;;;;;;5052879;28;20029;-72
2022/03/08 05:11:05;;;;;;;6.35;1.75;;;-0.20;99.90;;;;;;5051806;28;20425;-73
2022/03/08 05:13:31;;;;;;;7.32;1.77;;;-0.20;99.90;;;;;;5052977;28;20028;-72
2022/03/08 05:15:57;;;;;;;3.75;1.90;;;-0.20;99.90;;;;;;5033702;28;20045;-73
2022/03/08 05:18:23;;;;;;;5.45;2.05;;;-0.20;99.90;;;;;;5033330;28;20475;-73
2022/03/08 05:20:49;;;;;;;4.25;1.80;;;-0.20;99.90;;;;;;5033181;28;20075;-74
2022/03/08 05:23:14;;;;;;;3.88;1.60;;;-0.20;99.90;;;;;;5033081;28;20088;-74
2022/03/08 05:25:41;;;;;;;5.90;1.98;;;-0.10;99.90;;;;;;5051255;28;20032;-74
2022/03/08 05:28:07;;;;;;;6.60;1.58;;;-0.10;99.90;;;;;;5055430;28;20112;-73
2022/03/08 05:30:33;;;;;;;6.00;2.00;;;0.00;99.90;;;;;;5056855;28;20474;-73
2022/03/08 05:32:59;;;;;;;6.20;1.63;;;0.00;99.90;;;;;;5055480;28;20021;-73
2022/03/08 05:35:24;;;;;;;4.07;1.55;;;0.10;99.90;;;;;;5041781;28;20022;-73
2022/03/08 05:37:50;;;;;;;4.50;1.75;;;0.10;99.90;;;;;;5036524;28;20550;-74
2022/03/08 05:40:16;;;;;;;4.03;1.52;;;0.10;99.90;;;;;;5037101;28;20022;-74
2022/03/08 05:42:43;;;;;;;5.88;2.17;;;0.20;99.90;;;;;;5037015;28;20022;-74
2022/03/08 05:45:10;;;;;;;4.57;1.90;;;0.20;99.90;;;;;;5037256;28;20029;-74
2022/03/08 05:47:37;;;;;;;5.70;1.90;;;0.20;99.90;;;;;;5035668;28;20112;-74
2022/03/08 05:50:04;;;;;;;5.82;1.77;;;0.20;99.90;;;;;;5036994;28;20481;-74
2022/03/08 05:52:30;;;;;;;3.88;1.85;;;0.30;99.90;;;;;;5036858;28;20068;-73
2022/03/08 05:54:55;;;;;;;4.55;1.52;;;0.30;99.90;;;;;;5046671;28;20367;-73
2022/03/08 05:57:21;;;;;;;5.10;1.83;;;0.30;99.90;;;;;;5055383;28;20025;-73
2022/03/08 05:59:49;;;;;;;7.88;1.55;;;0.30;99.90;;;;;;5055827;28;20025;-73
2022/03/08 06:02:16;;;;;;;2.67;1.25;;;0.30;99.90;;;;;;5056679;28;20045;-73
2022/03/08 06:04:42;;;;;;;4.90;1.48;;;0.30;99.90;;;;;;5042700;28;20457;-73
2022/03/08 06:07:07;;;;;;;5.03;2.00;;;0.20;99.90;;;;;;5036837;28;20060;-72
2022/03/08 06:09:33;;;;;;;5.10;1.75;;;0.20;99.90;;;;;;5068467;28;20021;-73
2022/03/08 06:12:00;;;;;;;5.93;1.52;;;0.20;99.90;;;;;;5035165;28;20022;-73
2022/03/08 06:14:26;;;;;;;10.43;1.88;;;0.20;99.90;;;;;;5044177;28;20044;-73
2022/03/08 06:16:52;;;;;;;7.10;1.58;;;0.10;99.90;;;;;;5056418;28;20060;-73
2022/03/08 06:19:18;;;;;;;3.08;1.52;;;0.10;99.90;;;;;;5056261;28;20029;-73
2022/03/08 06:21:43;;;;;;;3.70;1.60;;;0.10;99.90;;;;;;5054981;28;20025;-73
2022/03/08 06:24:11;;;;;;;5.00;1.80;;;0.10;99.90;;;;;;5056221;28;20036;-73
2022/03/08 06:26:37;;;;;;;5.97;2.08;;;0.10;99.90;;;;;;5056447;28;20032;-73
2022/03/08 06:29:03;;;;;;;4.45;1.58;;;0.10;99.90;;;;;;5054788;28;20490;-73
2022/03/08 06:31:28;;;;;;;7.30;1.67;;;0.10;99.90;;;;;;5055703;28;20026;-73
2022/03/08 06:33:54;;;;;;;4.57;1.52;;;0.20;99.90;;;;;;5054915;28;20052;-73
2022/03/08 06:36:19;;;;;;;3.50;1.25;;;0.20;99.90;;;;;;5055000;28;20071;-72
2022/03/08 06:38:45;;;;;;;3.67;1.67;;;0.20;99.90;;;;;;5054126;28;20037;-73
2022/03/08 06:41:10;;;;;;;5.43;1.90;;;0.30;99.90;;;;;;5055656;28;20028;-72
2022/03/08 06:43:36;;;;;;;7.60;1.88;;;0.30;99.90;;;;;;5054672;28;20142;-72
2022/03/08 06:46:02;;;;;;;3.95;1.88;;;0.30;99.90;;;;;;5055142;28;20013;-73
2022/03/08 06:48:27;;;;;;;8.63;1.92;;;0.70;99.90;;;;;;5056269;28;20025;-72
2022/03/08 06:50:53;;;;;;;5.55;2.30;;;0.50;99.90;;;;;;5055991;28;20539;-73
2022/03/08 06:53:18;;;;;;;4.32;1.58;;;0.60;99.90;;;;;;5055928;28;20049;-72
2022/03/08 06:55:44;;;;;;;3.90;1.63;;;0.70;99.90;;;;;;5055972;28;20462;-73
2022/03/08 06:58:09;;;;;;;5.57;1.27;;;0.80;99.90;;;;;;5055890;28;20103;-72
2022/03/08 07:00:35;;;;;;;5.20;1.70;;;1.00;99.90;;;;;;5048891;28;20474;-77
2022/03/08 07:03:00;;;;;;;4.65;1.85;;;1.10;99.90;;;;;;5054755;28;20021;-77
2022/03/08 07:05:26;;;;;;;8.77;3.05;;;1.20;99.90;;;;;;5050529;28;20117;-79
2022/03/08 07:07:52;;;;;;;5.65;1.50;;;1.20;99.90;;;;;;5054570;28;20402;-77
2022/03/08 07:10:17;;;;;;;8.80;1.60;;;1.40;99.90;;;;;;5055086;28;20045;-77
2022/03/08 07:12:43;;;;;;;4.13;1.77;;;1.60;99.90;;;;;;5054877;28;20025;-77
2022/03/08 07:15:09;;;;;;;4.15;1.67;;;1.70;99.90;;;;;;5054141;28;20032;-76
2022/03/08 07:17:34;;;;;;;6.40;1.98;;;1.80;99.40;;;;;;5054586;28;20035;-77
2022/03/08 07:20:00;;;;;;;4.30;1.50;;;1.90;99.50;;;;;;5055967;28;20032;-76
2022/03/08 07:22:25;;;;;;;5.00;1.80;;;2.00;98.80;;;;;;5054156;28;20025;-77
2022/03/08 07:24:51;;;;;;;5.57;1.67;;;2.10;97.50;;;;;;5055236;28;20032;-77
2022/03/08 07:27:16;;;;;;;4.78;1.80;;;2.20;97.00;;;;;;5053857;28;20017;-77
2022/03/08 07:29:43;;;;;;;4.70;1.48;;;2.30;96.40;;;;;;5055098;28;20088;-74
2022/03/08 07:32:09;;;;;;;3.15;1.35;;;2.50;95.20;;;;;;5055480;28;20032;-77
2022/03/08 07:34:35;;;;;;;4.32;1.95;;;2.60;93.80;;;;;;5055841;28;20025;-76
2022/03/08 07:37:01;;;;;;;3.03;1.15;;;2.70;93.10;;;;;;5055026;28;20064;-77
2022/03/08 07:39:26;;;;;;;5.43;2.28;;;2.90;91.50;;;;;;5054099;28;20024;-77
2022/03/08 07:41:52;;;;;;;5.20;1.80;;;2.90;91.30;;;;;;5055872;28;20032;-76
2022/03/08 07:44:17;;;;;;;3.85;1.88;;;3.10;90.30;;;;;;5055703;28;20581;-76
2022/03/08 07:46:43;;;;;;;3.70;1.85;;;3.10;90.30;;;;;;5055721;28;20390;-77
2022/03/08 07:49:08;;;;;;;4.53;1.27;;;3.20;89.00;;;;;;5055606;28;20059;-77
2022/03/08 07:51:34;;;;;;;4.28;1.45;;;3.30;88.40;;;;;;5054054;28;20530;-76
2022/03/08 07:53:59;;;;;;;5.57;1.20;;;3.40;85.60;;;;;;5055959;28;20025;-77
2022/03/08 07:56:25;;;;;;;3.53;1.38;;;3.50;85.10;;;;;;5055009;28;20013;-77
2022/03/08 07:58:52;;;;;;;3.33;1.42;;;3.60;82.90;;;;;;5055032;28;20029;-77
2022/03/08 08:01:18;;;;;;;5.63;1.95;;;3.70;80.10;;;;;;5054870;28;20185;-77
2022/03/08 08:03:44;;;;;;;4.07;1.05;;;3.70;80.70;;;;;;5055387;28;20028;-77
2022/03/08 08:06:09;;;;;;;4.63;1.30;;;3.90;79.00;;;;;;5055465;28;20099;-76
2022/03/08 08:08:35;;;;;;;4.80;1.67;;;3.90;78.30;;;;;;5053916;28;20032;-76
2022/03/08 08:11:01;;;;;;;5.63;1.25;;;4.00;77.00;;;;;;5053767;28;20482;-76
2022/03/08 08:13:26;;;;;;;3.50;1.20;;;4.40;76.30;;;;;;5055242;28;20025;-75
2022/03/08 08:15:52;;;;;;;6.32;1.38;;;4.10;76.30;;;;;;5054848;28;20013;-76
2022/03/08 08:18:18;;;;;;;5.63;1.70;;;4.20;74.50;;;;;;5054640;28;20394;-75
2022/03/08 08:20:44;;;;;;;6.55;1.33;;;4.20;74.30;;;;;;5053380;28;20040;-77
2022/03/08 08:23:09;;;;;;;3.05;1.45;;;4.40;74.90;;;;;;5054865;28;20041;-77
2022/03/08 08:25:35;;;;;;;4.97;1.75;;;4.40;73.30;;;;;;5055233;28;20029;-77
2022/03/08 08:28:00;;;;;;;5.18;1.58;;;4.50;73.80;;;;;;5054919;28;20017;-77
2022/03/08 08:30:26;;;;;;;2.95;1.55;;;4.60;72.90;;;;;;5053144;28;20021;-77
2022/03/08 08:32:52;;;;;;;2.88;1.60;;;4.70;72.30;;;;;;5054576;28;20013;-77
2022/03/08 08:35:18;;;;;;;2.80;1.10;;;4.80;70.80;;;;;;5054409;28;20032;-77
2022/03/08 08:37:44;;;;;;;4.15;1.42;;;4.80;71.30;;;;;;5052628;28;20117;-77
2022/03/08 08:40:11;;;;;;;3.33;1.30;;;4.90;70.10;;;;;;5053040;28;20055;-77
2022/03/08 08:42:37;;;;;;;4.07;1.33;;;5.00;70.10;;;;;;5053439;28;20025;-77
2022/03/08 08:45:03;;;;;;;5.30;1.17;;;5.00;70.00;;;;;;5053744;28;20032;-77
2022/03/08 08:47:29;;;;;;;5.97;1.10;;;5.00;69.60;;;;;;5054248;28;20167;-77
2022/03/08 08:49:55;;;;;;;2.70;1.30;;;5.00;70.90;;;;;;5054500;28;20092;-77
2022/03/08 08:52:20;;;;;;;3.83;1.50;;;5.10;70.40;;;;;;5054365;28;20049;-77
2022/03/08 08:54:47;;;;;;;5.00;1.52;;;5.20;70.00;;;;;;5052882;28;20024;-77
2022/03/08 08:57:13;;;;;;;3.78;1.40;;;5.30;70.80;;;;;;5052662;28;20086;-77
2022/03/08 08:59:38;;;;;;;3.90;1.42;;;5.30;69.60;;;;;;5052673;28;20021;-77
2022/03/08 09:02:04;;;;;;;13.73;2.28;;;5.40;68.30;;;;;;5058004;28;20033;-77
2022/03/08 09:04:30;;;;;;;3.55;1.20;;;5.50;68.50;;;;;;5058132;28;20022;-77
2022/03/08 09:06:55;;;;;;;2.70;1.40;;;5.50;67.20;;;;;;5058189;28;20029;-77
2022/03/08 09:09:21;;;;;;;4.18;2.03;;;5.60;67.70;;;;;;5057766;28;20025;-77
2022/03/08 09:11:47;;;;;;;2.83;1.27;;;5.70;67.50;;;;;;5057931;28;20036;-77
2022/03/08 09:14:12;;;;;;;2.40;1.40;;;5.70;67.80;;;;;;5057612;28;20028;-77
2022/03/08 09:16:38;;;;;;;2.85;1.10;;;5.70;66.70;;;;;;5056424;28;20032;-77
2022/03/08 09:19:04;;;;;;;3.60;1.23;;;5.90;66.80;;;;;;5058069;28;20086;-77
2022/03/08 09:21:29;;;;;;;3.33;1.45;;;5.90;66.40;;;;;;5072970;28;20032;-77
2022/03/08 09:23:56;;;;;;;6.35;1.58;;;6.00;65.60;;;;;;5073324;28;20405;-77
2022/03/08 09:26:21;;;;;;;4.35;1.13;;;7.50;64.80;;;;;;5057522;28;20096;-77
2022/03/08 09:28:47;;;;;;;4.43;1.77;;;6.20;64.60;;;;;;5056370;28;20025;-77
2022/03/08 09:31:13;;;;;;;2.70;1.38;;;6.20;63.70;;;;;;5058027;28;20032;-77
2022/03/08 09:33:40;;;;;;;2.67;1.23;;;6.30;63.00;;;;;;5056364;28;20021;-77
2022/03/08 09:36:05;;;;;;;3.00;1.40;;;6.40;62.90;;;;;;5057540;28;20429;-77
2022/03/08 09:38:31;;;;;;;2.58;1.40;;;6.40;61.90;;;;;;5056313;28;20029;-77
2022/03/08 09:40:57;;;;;;;2.70;1.40;;;6.50;62.00;;;;;;5056369;28;20078;-77
2022/03/08 09:43:23;;;;;;;4.85;1.60;;;6.60;61.40;;;;;;5055770;28;20391;-77
2022/03/08 09:45:48;;;;;;;3.17;1.98;;;6.70;60.50;;;;;;5057285;28;20043;-77
2022/03/08 09:48:15;;;;;;;3.22;2.25;;;6.80;59.30;;;;;;5055573;28;20032;-77
2022/03/08 09:50:41;;;;;;;3.00;1.25;;;6.90;58.80;;;;;;5072457;28;20025;-77
2022/03/08 09:53:10;;;;;;;4.45;1.30;;;6.90;58.00;;;;;;5056607;28;20505;-76
2022/03/08 09:55:35;;;;;;;;;;;6.90;57.90;;;;;;5057616;28;20441;-77
2022/03/08 09:58:01;;;;;;;6.53;1.90;;;6.90;57.30;;;;;;5055583;28;19944;-77
2022/03/08 10:00:27;;;;;;;5.63;2.08;;;6.90;58.00;;;;;;5057057;28;20033;-77
2022/03/08 10:02:58;;;;;;;5.18;1.33;;;6.90;57.40;;;;;;5056823;28;20501;-77
2022/03/08 10:05:29;;;;;;;6.85;2.45;;;6.90;57.20;;;;;;5057051;28;20100;-77
2022/03/08 10:08:13;;;;;;;2.70;1.60;;;6.90;57.20;;;;;;5056945;28;20492;-78
2022/03/08 10:10:58;;;;;;;2.40;1.02;;;6.90;57.70;;;;;;5057464;28;20100;-78
2022/03/08 10:13:28;;;;;;;3.00;1.63;;;6.90;57.70;;;;;;5057097;28;20029;-77
2022/03/08 10:16:03;;;;;;;4.53;1.25;;;7.00;57.10;;;;;;5057117;28;20075;-78
2022/03/08 10:18:46;;;;;;;3.22;1.10;;;7.00;56.70;;;;;;5056952;28;20446;-77
2022/03/08 10:21:42;;;;;;;7.28;2.08;;;7.00;58.00;;;;;;5055476;28;20123;-77
2022/03/08 10:24:15;;;;;;;2.78;1.60;;;7.10;58.00;;;;;;5055683;28;20021;-78
2022/03/08 10:26:47;;;;;;;2.40;1.40;;;7.20;58.60;;;;;;5056878;28;20032;-78
2022/03/08 10:29:14;;;;;;;7.55;1.20;;;7.30;57.90;;;;;;5055594;28;20094;-78
2022/03/08 10:31:40;;;;;;;3.30;1.73;;;7.50;58.00;;;;;;5056108;28;20017;-77
2022/03/08 10:34:08;;;;;;;7.15;1.63;;;7.60;57.00;;;;;;5056191;28;20028;-78
2022/03/08 10:36:37;;;;;;;3.40;1.95;;;7.60;56.70;;;;;;5054529;28;20021;-78
2022/03/08 10:39:04;;;;;;;;;;;7.70;56.80;;;;;;5055970;28;20029;-77
2022/03/08 10:41:29;;;;;;;3.83;1.00;;;7.70;57.40;;;;;;5055362;28;19912;-77
2022/03/08 10:43:56;;;;;;;3.85;1.65;;;7.90;56.50;;;;;;5055733;28;20021;-77
2022/03/08 10:46:22;;;;;;;3.92;2.17;;;8.00;55.60;;;;;;5054168;28;20486;-77
2022/03/08 10:48:47;;;;;;;4.30;1.60;;;8.00;54.90;;;;;;5054604;28;20025;-78
2022/03/08 10:51:14;;;;;;;3.80;1.38;;;8.10;54.50;;;;;;5055546;28;20029;-77
2022/03/08 10:53:44;;;;;;;3.38;1.75;;;8.20;53.70;;;;;;5054070;28;20468;-77
2022/03/08 10:56:10;;;;;;;3.40;0.95;;;8.20;52.70;;;;;;5053911;28;20448;-77
2022/03/08 10:58:53;;;;;;;5.03;1.30;;;8.30;53.50;;;;;;5055211;28;20021;-76
2022/03/08 11:01:19;;;;;;;4.10;1.20;;;8.40;52.80;;;;;;5053980;28;20029;-74
2022/03/08 11:03:56;;;;;;;3.08;1.58;;;8.40;53.60;;;;;;5070612;28;20025;-77
2022/03/08 11:06:23;;;;;;;5.05;1.50;;;8.60;52.70;;;;;;5054198;28;20025;-79
2022/03/08 11:08:49;;;;;;;4.07;1.35;;;8.70;52.80;;;;;;5053976;28;20029;-79
2022/03/08 11:11:16;;;;;;;6.13;1.63;;;8.90;51.40;;;;;;5053837;28;20060;-78
2022/03/08 11:13:43;;;;;;;3.90;1.17;;;9.00;51.40;;;;;;5054908;28;20052;-79
2022/03/08 11:16:09;;;;;;;5.03;1.75;;;9.10;50.80;;;;;;5053651;28;20494;-79
2022/03/08 11:18:38;;;;;;;1.70;1.08;;;9.10;50.90;;;;;;5053869;28;20025;-79
2022/03/08 11:21:04;;;;;;;1.83;1.02;;;9.30;51.10;;;;;;5053498;28;20021;-79
2022/03/08 11:23:32;;;;;;;2.15;1.10;;;9.50;50.40;;;;;;5053209;28;20386;-79
2022/03/08 11:25:58;;;;;;;3.88;1.77;;;9.60;50.50;;;;;;5055719;28;20032;-79
2022/03/08 11:28:25;;;;;;;1.45;1.15;;;9.70;49.30;;;;;;5053851;28;20394;-79
2022/03/08 11:30:56;;;;;;;1.77;0.80;;;9.90;50.30;;;;;;5055201;28;20013;-79
2022/03/08 11:34:04;;;;;;;2.67;1.00;;;10.00;48.20;;;;;;5053815;28;20511;-79
2022/03/08 11:36:38;;;;;;;3.95;1.23;;;10.00;48.20;;;;;;5054903;28;20478;-79
2022/03/08 11:39:30;;;;;;;3.33;1.13;;;10.00;47.20;;;;;;5055272;28;20403;-79
2022/03/08 11:42:20;;;;;;;1.95;0.80;;;10.10;47.20;;;;;;5053440;28;20036;-79
2022/03/08 11:44:58;;;;;;;1.85;0.70;;;10.20;48.30;;;;;;5054808;28;20021;-79
2022/03/08 11:47:34;;;;;;;2.55;1.33;;;10.50;46.80;;;;;;5053345;28;20025;-79
2022/03/08 11:50:00;;;;;;;9.82;1.88;;;10.60;45.20;;;;;;5055204;28;20025;-79
2022/03/08 11:52:34;;;;;;;2.35;1.00;;;10.60;45.40;;;;;;5054980;28;20127;-79
2022/03/08 11:55:11;;;;;;;4.22;1.08;;;10.80;44.40;;;;;;5054128;28;20494;-79
2022/03/08 11:57:49;;;;;;;2.22;0.57;;;10.80;44.90;;;;;;5054082;28;20017;-77
2022/03/08 12:00:20;;;;;;;2.45;0.90;;;10.90;43.80;;;;;;5054326;28;20024;-79
2022/03/08 12:02:48;;;;;;;1.80;0.70;;;10.90;43.50;;;;;;5052897;28;20104;-77
2022/03/08 12:05:39;;;;;;;4.50;1.40;;;11.00;44.20;;;;;;5052654;28;20021;-78
2022/03/08 12:08:29;;;;;;;1.75;0.95;;;10.90;43.70;;;;;;5052443;28;20033;-78
2022/03/08 12:11:01;;;;;;;7.38;1.13;;;11.00;44.20;;;;;;5052608;28;20108;-79
2022/03/08 12:13:28;;;;;;;2.70;0.88;;;11.10;44.90;;;;;;5053830;28;20482;-78
2022/03/08 12:16:09;;;;;;;1.73;0.55;;;11.20;43.20;;;;;;5054520;28;20013;-78
2022/03/08 12:18:49;;;;;;;5.20;1.00;;;11.30;41.60;;;;;;5053227;28;20025;-78
2022/03/08 12:21:36;;;;;;;3.67;0.93;;;11.30;43.10;;;;;;5065533;28;20017;-82
2022/03/08 12:24:18;;;;;;;2.78;0.45;;;10.90;42.70;;;;;;5058824;28;20037;-80
2022/03/08 12:26:59;;;;;;;2.83;1.02;;;12.90;43.70;;;;;;5053190;28;20029;-79
2022/03/08 12:29:28;;;;;;;2.25;0.70;;;11.60;42.70;;;;;;5054228;28;20048;-78
2022/03/08 12:31:57;;;;;;;1.88;0.65;;;11.60;42.60;;;;;;5054183;28;20090;-79
2022/03/08 12:34:43;;;;;;;4.13;1.33;;;11.70;42.70;;;;;;5053073;28;20021;-79
2022/03/08 12:37:19;;;;;;;1.80;0.70;;;11.90;42.50;;;;;;5052203;28;20043;-79
2022/03/08 12:39:50;;;;;;;2.25;0.90;;;13.40;43.00;;;;;;5053930;28;20051;-79
2022/03/08 12:42:19;;;;;;;4.55;1.25;;;12.20;41.50;;;;;;5054458;28;20059;-79
2022/03/08 12:44:53;;;;;;;2.20;1.20;;;12.20;41.70;;;;;;5053794;28;20025;-79
2022/03/08 12:47:19;;;;;;;4.85;0.55;;;12.20;41.40;;;;;;5052663;28;20032;-79
2022/03/08 12:49:46;;;;;;;3.22;0.75;;;12.20;41.50;;;;;;5053189;28;20027;-79
2022/03/08 12:52:14;;;;;;;3.85;0.82;;;12.30;41.20;;;;;;5054109;28;20025;-79
2022/03/08 12:54:43;;;;;;;2.58;0.57;;;12.60;41.40;;;;;;5053591;28;20387;-79
2022/03/08 12:57:13;;;;;;;3.45;1.42;;;12.70;40.70;;;;;;5054061;28;20021;-79